createdAt,value
2023-02-27T00:00:14.704Z,1.10
2023-02-27T00:02:46.425Z,1.30
2023-02-27T00:05:13.609Z,1.07
2023-02-27T00:07:40.397Z,1.08
2023-02-27T00:10:10.090Z,1.00
2023-02-27T00:12:38.660Z,0.90
2023-02-27T00:15:10.734Z,1.00
2023-02-27T00:17:37.639Z,0.80
2023-02-27T00:20:06.062Z,1.02
2023-02-27T00:22:32.791Z,1.13
2023-02-27T00:24:59.337Z,0.90
2023-02-27T00:27:25.854Z,1.20
2023-02-27T00:29:52.513Z,1.10
2023-02-27T00:32:19.149Z,0.75
2023-02-27T00:34:45.675Z,0.90
2023-02-27T00:37:12.194Z,0.85
2023-02-27T00:39:38.652Z,1.30
2023-02-27T00:42:05.277Z,1.13
2023-02-27T00:44:31.816Z,1.02
2023-02-27T00:46:58.514Z,1.17
2023-02-27T00:49:25.526Z,1.58
2023-02-27T00:51:52.558Z,1.10
2023-02-27T00:54:19.324Z,1.13
2023-02-27T00:56:45.860Z,1.00
2023-02-27T00:59:12.334Z,1.05
2023-02-27T01:01:38.860Z,0.70
2023-02-27T01:04:05.446Z,1.00
2023-02-27T01:06:31.874Z,1.00
2023-02-27T01:08:58.426Z,1.08
2023-02-27T01:11:25.231Z,1.10
2023-02-27T01:13:52.021Z,1.30
2023-02-27T01:16:18.513Z,1.20
2023-02-27T01:18:45.196Z,1.07
2023-02-27T01:21:11.724Z,1.05
2023-02-27T01:23:38.609Z,1.05
2023-02-27T01:26:05.324Z,0.88
2023-02-27T01:28:31.842Z,0.93
2023-02-27T01:30:58.369Z,1.13
2023-02-27T01:33:24.961Z,0.75
2023-02-27T01:35:51.543Z,0.75
2023-02-27T01:38:18.229Z,1.05
2023-02-27T01:40:45.103Z,0.65
2023-02-27T01:43:17.924Z,1.00
2023-02-27T01:45:48.443Z,1.00
2023-02-27T01:48:22.177Z,0.93
2023-02-27T01:51:24.645Z,1.23
2023-02-27T01:53:53.092Z,0.40
2023-02-27T01:56:29.251Z,0.73
2023-02-27T01:59:00.591Z,0.55
2023-02-27T02:01:28.196Z,0.43
2023-02-27T02:04:26.416Z,0.85
2023-02-27T02:07:07.338Z,0.60
2023-02-27T02:09:38.319Z,0.57
2023-02-27T02:12:05.014Z,0.63
2023-02-27T02:14:31.542Z,0.50
2023-02-27T02:17:16.659Z,0.47
2023-02-27T02:20:07.613Z,0.52
2023-02-27T02:23:06.934Z,0.60
2023-02-27T02:26:06.332Z,0.45
2023-02-27T02:28:51.377Z,0.32
2023-02-27T02:31:21.029Z,0.63
2023-02-27T02:34:08.887Z,0.68
2023-02-27T02:37:08.699Z,0.70
2023-02-27T02:39:56.560Z,0.40
2023-02-27T02:42:29.128Z,0.32
2023-02-27T02:45:48.120Z,0.60
2023-02-27T02:48:21.706Z,0.38
2023-02-27T02:51:17.809Z,0.33
2023-02-27T02:54:03.902Z,0.43
2023-02-27T02:56:39.856Z,0.50
2023-02-27T02:59:10.766Z,0.55
2023-02-27T03:01:49.133Z,0.50
2023-02-27T03:04:22.293Z,0.80
2023-02-27T03:06:59.668Z,0.57
2023-02-27T03:09:34.672Z,0.40
2023-02-27T03:12:04.593Z,0.30
2023-02-27T03:15:06.595Z,0.55
2023-02-27T03:17:46.761Z,0.37
2023-02-27T03:20:22.191Z,0.35
2023-02-27T03:22:52.896Z,0.30
2023-02-27T03:25:20.513Z,0.30
2023-02-27T03:27:57.368Z,0.40
2023-02-27T03:30:33.016Z,0.30
2023-02-27T03:33:12.763Z,0.40
2023-02-27T03:35:47.121Z,0.30
2023-02-27T03:38:45.208Z,0.45
2023-02-27T03:41:23.203Z,0.25
2023-02-27T03:44:14.669Z,0.20
2023-02-27T03:46:41.953Z,0.30
2023-02-27T03:49:08.860Z,0.45
2023-02-27T03:51:36.338Z,0.38
2023-02-27T03:54:14.411Z,0.30
2023-02-27T03:56:43.748Z,0.40
2023-02-27T03:59:10.818Z,0.32
2023-02-27T04:01:37.689Z,0.30
2023-02-27T04:04:10.178Z,0.35
2023-02-27T04:06:58.265Z,0.30
2023-02-27T04:09:51.839Z,0.27
2023-02-27T04:12:36.292Z,0.50
2023-02-27T04:15:15.535Z,0.30
2023-02-27T04:18:01.716Z,0.20
2023-02-27T04:20:47.761Z,0.32
2023-02-27T04:23:23.186Z,0.27
2023-02-27T04:26:14.420Z,0.30
2023-02-27T04:28:59.119Z,0.50
2023-02-27T04:31:36.721Z,0.50
2023-02-27T04:34:36.552Z,0.40
2023-02-27T04:37:16.708Z,0.53
2023-02-27T04:40:06.382Z,0.50
2023-02-27T04:42:36.852Z,0.20
2023-02-27T04:45:07.795Z,0.30
2023-02-27T04:47:40.397Z,0.20
2023-02-27T04:50:19.629Z,0.20
2023-02-27T04:52:57.281Z,0.35
2023-02-27T04:55:33.035Z,0.38
2023-02-27T04:58:08.788Z,0.30
2023-02-27T05:00:37.800Z,0.30
2023-02-27T05:03:11.409Z,0.40
2023-02-27T05:05:39.956Z,0.22
2023-02-27T05:08:18.568Z,0.57
2023-02-27T05:11:07.822Z,0.60
2023-02-27T05:13:49.437Z,0.25
2023-02-27T05:16:27.158Z,0.20
2023-02-27T05:18:56.006Z,0.30
2023-02-27T05:21:32.012Z,0.28
2023-02-27T05:24:23.909Z,0.55
2023-02-27T05:27:11.644Z,0.30
2023-02-27T05:29:46.249Z,0.47
2023-02-27T05:32:40.032Z,0.68
2023-02-27T05:35:31.563Z,0.28
2023-02-27T05:38:10.063Z,0.40
2023-02-27T05:40:52.093Z,0.40
2023-02-27T05:43:26.262Z,0.50
2023-02-27T05:45:58.732Z,0.32
2023-02-27T05:48:34.722Z,0.45
2023-02-27T05:51:03.961Z,0.47
2023-02-27T05:53:35.157Z,0.47
2023-02-27T05:56:05.519Z,0.73
2023-02-27T05:58:45.886Z,0.60
2023-02-27T06:01:13.092Z,0.82
2023-02-27T06:03:41.103Z,0.63
2023-02-27T06:06:16.748Z,0.65
2023-02-27T06:08:44.243Z,0.73
2023-02-27T06:11:11.236Z,0.65
2023-02-27T06:13:39.093Z,1.33
2023-02-27T06:16:11.079Z,1.38
2023-02-27T06:18:37.564Z,1.10
2023-02-27T06:21:04.560Z,1.20
2023-02-27T06:23:31.309Z,1.30
2023-02-27T06:25:58.302Z,0.70
2023-02-27T06:28:25.077Z,1.08
2023-02-27T06:30:55.786Z,1.38
2023-02-27T06:33:22.607Z,0.97
2023-02-27T06:35:49.758Z,0.90
2023-02-27T06:38:16.330Z,0.90
2023-02-27T06:40:43.071Z,0.75
2023-02-27T06:43:09.890Z,1.13
2023-02-27T06:45:36.589Z,0.90
2023-02-27T06:48:03.310Z,1.80
2023-02-27T06:50:29.806Z,1.10
2023-02-27T06:52:56.316Z,1.13
2023-02-27T06:55:25.007Z,1.20
2023-02-27T06:57:51.664Z,1.43
2023-02-27T07:00:18.707Z,1.50
2023-02-27T07:02:45.345Z,1.40
2023-02-27T07:05:12.187Z,1.40
2023-02-27T07:07:42.227Z,1.67
2023-02-27T07:10:13.109Z,1.00
2023-02-27T07:12:40.408Z,2.05
2023-02-27T07:15:08.740Z,1.08
2023-02-27T07:17:35.269Z,1.02
2023-02-27T07:20:01.705Z,1.38
2023-02-27T07:22:28.419Z,1.10
2023-02-27T07:24:54.844Z,1.20
2023-02-27T07:27:21.335Z,1.30
2023-02-27T07:29:47.880Z,1.27
2023-02-27T07:32:14.452Z,1.30
2023-02-27T07:34:41.024Z,1.00
2023-02-27T07:37:08.121Z,1.27
2023-02-27T07:39:34.776Z,1.10
2023-02-27T07:42:01.265Z,1.10
2023-02-27T07:44:27.820Z,1.27
2023-02-27T07:46:54.656Z,1.00
2023-02-27T07:49:21.234Z,1.00
2023-02-27T07:51:47.701Z,1.00
2023-02-27T07:54:14.212Z,0.80
2023-02-27T07:56:40.685Z,1.00
2023-02-27T07:59:07.211Z,0.73
2023-02-27T08:01:33.679Z,1.20
2023-02-27T08:04:00.183Z,0.60
2023-02-27T08:06:27.128Z,0.90
2023-02-27T08:08:53.859Z,0.55
2023-02-27T08:11:20.431Z,0.50
2023-02-27T08:14:02.923Z,0.55
2023-02-27T08:16:30.991Z,0.35
2023-02-27T08:18:57.740Z,0.65
2023-02-27T08:21:24.403Z,0.65
2023-02-27T08:23:51.105Z,0.50
2023-02-27T08:26:18.017Z,0.60
2023-02-27T08:28:44.626Z,0.50
2023-02-27T08:31:11.149Z,0.47
2023-02-27T08:33:37.709Z,0.68
2023-02-27T08:36:04.756Z,0.33
2023-02-27T08:38:31.251Z,0.65
2023-02-27T08:40:57.874Z,0.50
2023-02-27T08:43:24.745Z,0.40
2023-02-27T08:45:51.711Z,0.63
2023-02-27T08:48:18.770Z,0.40
2023-02-27T08:50:46.481Z,0.45
2023-02-27T08:53:13.756Z,0.40
2023-02-27T08:55:40.477Z,0.77
2023-02-27T08:58:07.099Z,0.38
2023-02-27T09:00:33.621Z,0.67
2023-02-27T09:03:01.436Z,0.43
2023-02-27T09:05:28.578Z,0.60
2023-02-27T09:07:55.149Z,0.40
2023-02-27T09:10:21.641Z,0.50
2023-02-27T09:12:49.284Z,0.30
2023-02-27T09:15:16.307Z,0.40
2023-02-27T09:17:42.786Z,0.40
2023-02-27T09:20:10.759Z,0.57
2023-02-27T09:22:37.750Z,0.43
2023-02-27T09:25:05.050Z,0.67
2023-02-27T09:27:31.574Z,0.10
2023-02-27T09:29:58.363Z,0.30
2023-02-27T09:32:26.272Z,0.30
2023-02-27T09:34:53.391Z,0.35
2023-02-27T09:37:19.979Z,0.20
2023-02-27T09:39:46.894Z,0.50
2023-02-27T09:42:25.647Z,0.38
2023-02-27T09:44:55.892Z,0.70
2023-02-27T09:47:39.516Z,0.30
2023-02-27T09:50:40.667Z,0.10
2023-02-27T09:53:14.470Z,0.30
2023-02-27T09:55:42.787Z,0.20
2023-02-27T09:58:46.968Z,0.20
2023-02-27T10:01:21.963Z,0.25
2023-02-27T10:04:32.080Z,0.30
2023-02-27T10:07:12.617Z,0.20
2023-02-27T10:10:14.655Z,0.30
2023-02-27T10:13:18.395Z,0.20
2023-02-27T10:15:48.832Z,0.20
2023-02-27T10:18:30.647Z,0.20
2023-02-27T10:21:02.653Z,0.28
2023-02-27T10:23:58.056Z,0.20
2023-02-27T10:26:35.916Z,0.10
2023-02-27T10:29:34.215Z,0.40
2023-02-27T10:32:10.536Z,0.10
2023-02-27T10:34:40.280Z,0.10
2023-02-27T10:37:10.548Z,0.60
2023-02-27T10:39:47.477Z,0.20
2023-02-27T10:42:16.315Z,0.20
2023-02-27T10:44:42.980Z,0.20
2023-02-27T10:47:15.392Z,0.20
2023-02-27T10:49:43.507Z,0.20
2023-02-27T10:52:15.068Z,0.30
2023-02-27T10:54:43.119Z,0.30
2023-02-27T10:57:28.674Z,0.10
2023-02-27T10:59:59.125Z,0.00
2023-02-27T11:02:35.073Z,0.30
2023-02-27T11:05:02.527Z,0.10
2023-02-27T11:07:32.723Z,0.10
2023-02-27T11:10:02.795Z,0.10
2023-02-27T11:12:32.264Z,0.10
2023-02-27T11:15:01.601Z,0.20
2023-02-27T11:17:32.361Z,0.10
2023-02-27T11:20:01.067Z,0.10
2023-02-27T11:22:30.193Z,0.20
2023-02-27T11:25:18.733Z,0.10
2023-02-27T11:27:46.502Z,0.20
2023-02-27T11:30:31.758Z,0.10
2023-02-27T11:33:01.457Z,0.25
2023-02-27T11:35:34.820Z,0.10
2023-02-27T11:38:07.250Z,0.17
2023-02-27T11:40:39.915Z,0.17
2023-02-27T11:43:18.908Z,0.20
2023-02-27T11:46:04.859Z,0.10
2023-02-27T11:48:46.298Z,0.17
2023-02-27T11:51:34.393Z,0.10
2023-02-27T11:54:10.525Z,0.28
2023-02-27T11:56:50.516Z,0.17
2023-02-27T11:59:30.213Z,0.10
2023-02-27T12:02:19.412Z,0.10
2023-02-27T12:05:13.917Z,0.10
2023-02-27T12:08:07.354Z,0.40
2023-02-27T12:10:48.455Z,0.10
2023-02-27T12:13:20.451Z,0.10
2023-02-27T12:16:06.034Z,0.10
2023-02-27T12:18:44.937Z,0.10
2023-02-27T12:21:40.159Z,0.10
2023-02-27T12:24:39.063Z,0.10
2023-02-27T12:27:44.450Z,0.15
2023-02-27T12:30:32.008Z,0.10
2023-02-27T12:33:10.063Z,0.20
2023-02-27T12:35:36.661Z,0.20
2023-02-27T12:38:04.474Z,0.10
2023-02-27T12:40:59.431Z,0.20
2023-02-27T12:43:49.330Z,0.30
2023-02-27T12:46:15.847Z,0.30
2023-02-27T12:48:56.565Z,0.20
2023-02-27T12:51:43.473Z,0.15
2023-02-27T12:54:15.853Z,0.20
2023-02-27T12:57:14.536Z,0.30
2023-02-27T13:00:07.291Z,0.10
2023-02-27T13:02:43.668Z,0.10
2023-02-27T13:05:28.464Z,0.15
2023-02-27T13:08:16.666Z,0.20
2023-02-27T13:10:45.546Z,0.30
2023-02-27T13:13:41.343Z,0.20
2023-02-27T13:16:14.144Z,0.20
2023-02-27T13:18:45.668Z,0.10
2023-02-27T13:21:28.233Z,0.30
2023-02-27T13:24:10.265Z,0.20
2023-02-27T13:26:46.002Z,0.25
2023-02-27T13:29:16.139Z,0.20
2023-02-27T13:31:50.157Z,0.30
2023-02-27T13:34:37.521Z,0.17
2023-02-27T13:37:06.358Z,0.23
2023-02-27T13:39:52.736Z,0.40
2023-02-27T13:42:28.938Z,0.20
2023-02-27T13:44:57.308Z,0.20
2023-02-27T13:47:29.863Z,0.30
2023-02-27T13:49:57.696Z,0.20
2023-02-27T13:52:36.288Z,0.32
2023-02-27T13:55:12.078Z,0.10
2023-02-27T13:57:39.364Z,0.28
2023-02-27T14:00:17.212Z,0.17
2023-02-27T14:03:00.615Z,0.10
2023-02-27T14:05:40.026Z,0.20
2023-02-27T14:08:28.289Z,0.10
2023-02-27T14:11:13.497Z,0.20
2023-02-27T14:13:49.858Z,0.10
2023-02-27T14:16:38.446Z,0.10
2023-02-27T14:19:22.360Z,0.17
2023-02-27T14:22:00.381Z,0.10
2023-02-27T14:24:49.702Z,0.20
2023-02-27T14:27:25.561Z,0.20
2023-02-27T14:29:56.108Z,0.20
2023-02-27T14:32:25.723Z,0.20
2023-02-27T14:34:54.964Z,0.30
2023-02-27T14:37:25.167Z,0.32
2023-02-27T14:39:54.313Z,0.60
2023-02-27T14:42:35.918Z,0.40
2023-02-27T14:45:03.353Z,0.40
2023-02-27T14:47:34.738Z,0.60
2023-02-27T14:50:04.116Z,0.60
2023-02-27T14:52:32.831Z,0.43
2023-02-27T14:55:29.802Z,0.60
2023-02-27T14:58:17.062Z,0.63
2023-02-27T15:00:50.735Z,0.60
2023-02-27T15:03:23.720Z,0.55
2023-02-27T15:05:53.162Z,0.30
2023-02-27T15:08:30.642Z,0.30
2023-02-27T15:10:59.935Z,0.50
2023-02-27T15:13:31.979Z,0.38
2023-02-27T15:16:23.340Z,0.20
2023-02-27T15:18:57.197Z,0.40
2023-02-27T15:21:26.357Z,0.70
2023-02-27T15:23:58.069Z,0.88
2023-02-27T15:26:26.036Z,0.60
2023-02-27T15:28:52.950Z,0.77
2023-02-27T15:31:27.322Z,0.70
2023-02-27T15:33:54.912Z,0.70
2023-02-27T15:36:28.644Z,0.43
2023-02-27T15:39:15.908Z,0.80
2023-02-27T15:41:51.513Z,0.60
2023-02-27T15:44:23.671Z,0.80
2023-02-27T15:46:51.103Z,0.50
2023-02-27T15:49:23.391Z,0.50
2023-02-27T15:52:14.953Z,0.30
2023-02-27T15:55:01.045Z,0.50
2023-02-27T15:57:28.095Z,0.25
2023-02-27T15:59:56.840Z,0.40
2023-02-27T16:02:39.548Z,0.60
2023-02-27T16:05:06.647Z,0.47
2023-02-27T16:07:41.499Z,0.50
2023-02-27T16:10:16.572Z,0.40
2023-02-27T16:12:44.574Z,0.33
2023-02-27T16:15:18.075Z,0.75
2023-02-27T16:18:09.102Z,0.35
2023-02-27T16:20:38.669Z,0.20
2023-02-27T16:23:06.965Z,0.20
2023-02-27T16:25:33.668Z,0.30
2023-02-27T16:28:00.703Z,0.30
2023-02-27T16:30:27.693Z,0.10
2023-02-27T16:33:01.004Z,0.30
2023-02-27T16:35:28.796Z,0.40
2023-02-27T16:38:01.443Z,0.30
2023-02-27T16:40:28.685Z,0.30
2023-02-27T16:42:56.001Z,0.28
2023-02-27T16:45:24.122Z,0.30
2023-02-27T16:47:54.052Z,0.20
2023-02-27T16:50:23.606Z,0.30
2023-02-27T16:52:50.202Z,0.30
2023-02-27T16:55:16.983Z,0.30
2023-02-27T16:57:43.466Z,0.50
2023-02-27T17:00:14.849Z,0.55
2023-02-27T17:02:41.289Z,0.40
2023-02-27T17:05:08.252Z,0.50
2023-02-27T17:07:35.134Z,0.35
2023-02-27T17:10:01.752Z,0.40
2023-02-27T17:12:28.344Z,0.52
2023-02-27T17:14:55.798Z,0.50
2023-02-27T17:17:22.354Z,0.40
2023-02-27T17:19:48.985Z,0.50
2023-02-27T17:22:15.481Z,0.50
2023-02-27T17:24:42.138Z,0.30
2023-02-27T17:27:09.433Z,0.40
2023-02-27T17:29:38.063Z,0.50
2023-02-27T17:32:05.019Z,0.40
2023-02-27T17:35:27.546Z,0.38
2023-02-27T17:37:54.112Z,0.35
2023-02-27T17:40:20.740Z,0.50
2023-02-27T17:42:47.331Z,0.50
2023-02-27T17:45:14.527Z,0.60
2023-02-27T17:47:41.230Z,0.60
2023-02-27T17:50:08.028Z,0.47
2023-02-27T17:52:37.803Z,0.50
2023-02-27T17:55:05.048Z,0.60
2023-02-27T17:57:31.643Z,0.85
2023-02-27T17:59:58.193Z,0.73
2023-02-27T18:02:24.782Z,0.60
2023-02-27T18:04:51.336Z,0.50
2023-02-27T18:07:18.380Z,0.60
2023-02-27T18:09:46.589Z,2.00
2023-02-27T18:12:13.154Z,3.08
2023-02-27T18:14:43.481Z,8.07
2023-02-27T18:17:12.507Z,10.63
2023-02-27T18:19:42.913Z,2.88
2023-02-27T18:22:10.676Z,1.92
2023-02-27T18:24:38.479Z,2.58
2023-02-27T18:27:05.093Z,9.68
2023-02-27T18:29:31.691Z,11.50
2023-02-27T18:31:58.296Z,6.55
2023-02-27T18:34:25.330Z,6.47
2023-02-27T18:36:52.210Z,3.33
2023-02-27T18:39:19.196Z,2.80
2023-02-27T18:41:46.284Z,1.17
2023-02-27T18:44:12.886Z,1.17
2023-02-27T18:46:40.289Z,0.80
2023-02-27T18:49:07.143Z,0.80
2023-02-27T18:51:33.670Z,0.95
2023-02-27T18:54:00.808Z,0.80
2023-02-27T18:56:30.345Z,0.70
2023-02-27T18:58:58.258Z,1.10
2023-02-27T19:01:30.300Z,0.63
2023-02-27T19:04:03.641Z,0.80
2023-02-27T19:06:32.598Z,0.90
2023-02-27T19:08:59.391Z,0.80
2023-02-27T19:11:33.830Z,0.75
2023-02-27T19:14:02.198Z,0.75
2023-02-27T19:16:29.268Z,0.60
2023-02-27T19:18:57.323Z,1.07
2023-02-27T19:21:24.953Z,0.60
2023-02-27T19:23:51.653Z,0.80
2023-02-27T19:26:18.438Z,0.60
2023-02-27T19:28:45.241Z,0.98
2023-02-27T19:31:13.878Z,0.93
2023-02-27T19:33:40.920Z,0.60
2023-02-27T19:36:11.049Z,0.63
2023-02-27T19:38:37.774Z,0.93
2023-02-27T19:41:07.243Z,0.90
2023-02-27T19:43:38.896Z,0.70
2023-02-27T19:46:12.232Z,0.80
2023-02-27T19:48:40.282Z,0.88
2023-02-27T19:51:09.407Z,0.50
2023-02-27T19:53:37.740Z,0.93
2023-02-27T19:56:10.754Z,1.00
2023-02-27T19:58:38.675Z,0.50
2023-02-27T20:01:05.779Z,0.60
2023-02-27T20:03:33.152Z,0.93
2023-02-27T20:05:59.809Z,0.93
2023-02-27T20:08:26.352Z,0.87
2023-02-27T20:10:57.587Z,0.80
2023-02-27T20:13:24.832Z,0.63
2023-02-27T20:16:03.133Z,0.73
2023-02-27T20:18:31.514Z,1.15
2023-02-27T20:21:01.564Z,0.93
2023-02-27T20:23:28.950Z,0.60
2023-02-27T20:25:55.474Z,0.90
2023-02-27T20:28:22.114Z,0.80
2023-02-27T20:30:48.722Z,0.90
2023-02-27T20:33:15.265Z,1.10
2023-02-27T20:35:41.996Z,0.90
2023-02-27T20:38:08.630Z,1.02
2023-02-27T20:40:35.216Z,0.98
2023-02-27T20:43:03.636Z,0.90
2023-02-27T20:45:30.346Z,0.90
2023-02-27T20:47:56.787Z,0.80
2023-02-27T20:50:23.357Z,1.00
2023-02-27T20:52:53.554Z,1.20
2023-02-27T20:55:19.988Z,0.90
2023-02-27T20:57:46.494Z,1.07
2023-02-27T21:00:13.594Z,1.40
2023-02-27T21:02:40.122Z,1.35
2023-02-27T21:05:07.060Z,1.50
2023-02-27T21:07:33.588Z,1.25
2023-02-27T21:10:00.194Z,1.50
2023-02-27T21:12:26.687Z,1.42
2023-02-27T21:14:53.133Z,1.27
2023-02-27T21:17:19.635Z,1.55
2023-02-27T21:19:46.099Z,1.00
2023-02-27T21:22:14.247Z,1.20
2023-02-27T21:24:40.737Z,1.17
2023-02-27T21:27:07.262Z,1.20
2023-02-27T21:29:33.989Z,1.30
2023-02-27T21:32:01.530Z,1.30
2023-02-27T21:34:28.882Z,1.10
2023-02-27T21:36:55.776Z,1.10
2023-02-27T21:39:25.973Z,1.15
2023-02-27T21:41:53.195Z,1.50
2023-02-27T21:44:21.367Z,1.00
2023-02-27T21:46:48.274Z,1.10
2023-02-27T21:49:24.372Z,1.30
2023-02-27T21:51:51.229Z,1.02
2023-02-27T21:54:18.884Z,1.40
2023-02-27T21:56:46.714Z,1.08
2023-02-27T21:59:14.852Z,1.40
2023-02-27T22:01:41.938Z,1.10
2023-02-27T22:04:08.627Z,1.20
2023-02-27T22:06:35.659Z,1.30
2023-02-27T22:09:05.094Z,1.10
2023-02-27T22:11:33.139Z,0.93
2023-02-27T22:14:00.119Z,1.40
2023-02-27T22:16:27.743Z,1.50
2023-02-27T22:18:54.426Z,1.13
2023-02-27T22:21:25.290Z,1.83
2023-02-27T22:23:52.518Z,1.33
2023-02-27T22:26:24.342Z,1.50
2023-02-27T22:28:51.939Z,1.20
2023-02-27T22:31:21.298Z,1.42
2023-02-27T22:33:51.028Z,1.33
2023-02-27T22:36:23.255Z,1.17
2023-02-27T22:38:50.413Z,1.20
2023-02-27T22:41:20.860Z,0.90
2023-02-27T22:43:47.632Z,1.10
2023-02-27T22:46:17.357Z,1.10
2023-02-27T22:48:44.555Z,0.77
2023-02-27T22:51:14.583Z,0.80
2023-02-27T22:53:46.048Z,0.80
2023-02-27T22:56:15.553Z,0.90
2023-02-27T22:58:44.152Z,1.08
2023-02-27T23:01:11.764Z,0.87
2023-02-27T23:03:39.195Z,1.17
2023-02-27T23:06:07.532Z,0.80
2023-02-27T23:08:34.259Z,1.10
2023-02-27T23:11:01.081Z,0.82
2023-02-27T23:13:28.021Z,1.00
2023-02-27T23:15:54.766Z,0.90
2023-02-27T23:18:21.626Z,1.00
2023-02-27T23:20:48.134Z,0.93
2023-02-27T23:23:14.665Z,0.98
2023-02-27T23:25:41.267Z,1.10
2023-02-27T23:28:08.020Z,1.10
2023-02-27T23:30:34.947Z,1.35
2023-02-27T23:33:01.969Z,1.08
2023-02-27T23:35:28.961Z,1.10
2023-02-27T23:37:57.774Z,1.13
2023-02-27T23:40:27.537Z,1.05
2023-02-27T23:42:54.496Z,1.23
2023-02-27T23:45:23.907Z,1.20
2023-02-27T23:47:52.624Z,1.50
2023-02-27T23:50:25.441Z,1.13
2023-02-27T23:52:55.525Z,1.10
2023-02-27T23:55:23.064Z,1.13
2023-02-27T23:57:55.016Z,1.25
